AirNav   Air Wisconsin Up To $57,000 Bonus
 
 1418 users online  

22GA Riverside Airport
Plainville, Georgia, USA

GOING TO PLAINVILLE?


FAA INFORMATION EFFECTIVE 25 MARCH 2021

Location

FAA Identifier: 22GA
Lat/Long: 34-25-45.3190N 085-03-15.8080W
34-25.755317N 085-03.263467W
34.4292553,-85.0543911
(estimated)
Elevation: 620 ft. / 189 m (estimated)
Variation: 01W (1985)
From city: 1 mile NW of PLAINVILLE, GA
Time zone: UTC -4 (UTC -5 during Standard Time)
Zip code: 30733

Airport Operations

Airport use: Private use. Permission required prior to landing
Activation date: 11/1989
Control tower: no
ARTCC: ATLANTA CENTER
FSS: MACON FLIGHT SERVICE STATION
Attendance: UNATNDD
Wind indicator: yes
Segmented circle: no

Airport Communications

WX AWOS-3 at CZL (6 nm E): 119.975 (706-602-5906)
WX ASOS at RMG (7 nm SW): 119.925 (706-235-3335)
WX AWOS-3 at 9A5 (19 nm NW): 119.775 (706-639-1976)
WX AWOS-3PT at DNN (20 nm NE): 127.65 (706-278-7010)

Nearby radio navigation aids

VOR radial/distance  VOR name  Freq  Var
RMGr010/16.3ROME VORTAC115.4001E
GQOr170/32.3CHOO CHOO VORTAC115.8001E

 
NDB name  Hdg/Dist  Freq  Var  ID
CHERO296/30.041505WDJD -.. .--- -..

Airport Services

Runway Information

Runway 8/26

Dimensions: 2340 x 60 ft. / 713 x 18 m
Surface: turf
RUNWAY 8  RUNWAY 26
Traffic pattern: leftleft

Airport Ownership and Management from official FAA records

Ownership: Privately-owned
Owner: ROBERT G. JENKINS
639 BUCHANAN
BALL GROUND, GA 30107-5520
Phone 404-545-4260
Manager: ROBERT G. JENKINS JR
639 BUCHANAN
BALL GROUND, GA 30107-5520
Phone 404-545-4260

Airport Operational Statistics

Aircraft based on the field: 2
Single engine airplanes: 2
    

Additional Remarks

FOR CD CTC ATLANTA APCH AT 678-364-6131.

Instrument Procedures

There are no published instrument procedures at 22GA.

Some nearby airports with instrument procedures:

KCZL - Tom B David Field Airport (6 nm E)
KRMG - Richard B. Russell Regional Airport - J.H. Towers Field (7 nm SW)
9A5 - Barwick Lafayette Airport (19 nm NW)
KDNN - Dalton Municipal Airport (20 nm NE)
KVPC - Cartersville Airport (21 nm SE)
 
Loc | Ops | Rwys | IFR | FBO | Links
Com | Nav | Svcs | Stats | Notes
Area around 22GA (Riverside Airport)
 
Road maps at: MapQuest Bing Google
 
Aerial photo
WARNING: Photo may not be current or correct
Aerial photo of 22GA (Riverside Airport)
Do you have a better or more recent aerial photo of Riverside Airport that you would like to share? If so, please send us your photo.

 
Sectional chart

 
Airport distance calculator
Flying to Riverside Airport? Find the distance to fly.

From to 22GA

Sunrise and sunset
Times for 12-Apr-2021
 Local
(UTC-4)
 Zulu
(UTC)
Morning civil twilight06:4810:48
Sunrise07:1411:14
Sunset20:0800:08
Evening civil twilight20:3400:34

Current date and time
Zulu (UTC)  12-Apr-2021 21:22:54
Local (UTC-4)  12-Apr-2021 17:22:54
 
METAR
KCZL 
6nm E 
122055Z AUTO 31008G15KT 10SM CLR M27/M42 A2986 RMK AO2
KRMG 
7nm SW 
122053Z AUTO 27012G17KT 10SM CLR 29/06 A2984 RMK AO2 SLP097 T02890061 58004
KDNN 
18nm N 
122055Z AUTO 28009G17KT 10SM CLR 28/M02 A2986 RMK AO2
K9A5 
19nm NW 
122055Z AUTO 31009KT 230V340 10SM CLR 28/02 A2987 RMK AO2 T02750023
TAF
KRYY 
33nm SE 
121721Z 1218/1318 29008G16KT P6SM SKC FM130000 30004KT P6SM FEW250 FM131300 02003KT P6SM FEW250
KCHA 
37nm N 
121720Z 1218/1318 30007KT P6SM SKC FM130100 36004KT P6SM FEW120
KMGE 
41nm SE 
121300Z 1213/1319 28009KT 9999 SKC QNH2984INS BECMG 1214/1215 29012G18KT 9999 SKC QNH2986INS BECMG 1216/1217 29015G25KT 9999 FEW250 QNH2984INS BECMG 1223/1224 29009KT 9999 SCT250 QNH2988INS BECMG 1314/1315 24012KT 9999 FEW060 SCT150 QNH3004INS TX27/1221Z TN12/1312Z
NOTAMs
Click for the latest NOTAMs
NOTAMs are issued by the DoD/FAA and will open in a separate window not controlled by AirNav.

 

 
 

Would you like to see your business listed on this page?

 If your business provides an interesting product or service to pilots, flight crews, aircraft, or users of the Riverside Airport, you should consider listing it here.  To start the listing process, click on the button below
 
Add a business
 

Other Pages about Riverside Airport

Update a link
 
Copyright © AirNav, LLC. All rights reserved. Privacy Policy  Contact